sensor_id;sensor_type;location;lat;lon;timestamp;pressure;altitude;pressure_sealevel;temperature;humidity
48824;BME280;34640;53.590;10.054;2022-07-10T00:00:57;101726.13;;;14.94;91.40
48824;BME280;34640;53.590;10.054;2022-07-10T00:03:48;101722.69;;;14.95;91.60
48824;BME280;34640;53.590;10.054;2022-07-10T00:06:41;101724.69;;;14.99;91.81
48824;BME280;34640;53.590;10.054;2022-07-10T00:09:38;101712.56;;;15.01;91.51
48824;BME280;34640;53.590;10.054;2022-07-10T00:12:29;101715.84;;;14.97;91.95
48824;BME280;34640;53.590;10.054;2022-07-10T00:15:21;101715.19;;;15.01;92.36
48824;BME280;34640;53.590;10.054;2022-07-10T00:18:13;101715.19;;;15.01;93.08
48824;BME280;34640;53.590;10.054;2022-07-10T00:21:05;101708.31;;;15.03;93.47
48824;BME280;34640;53.590;10.054;2022-07-10T00:23:56;101717.09;;;15.04;94.19
48824;BME280;34640;53.590;10.054;2022-07-10T00:26:49;101714.28;;;15.01;94.64
48824;BME280;34640;53.590;10.054;2022-07-10T00:29:40;101703.72;;;14.99;95.07
48824;BME280;34640;53.590;10.054;2022-07-10T00:32:32;101711.56;;;14.99;94.73
48824;BME280;34640;53.590;10.054;2022-07-10T00:35:23;101706.84;;;14.93;94.87
48824;BME280;34640;53.590;10.054;2022-07-10T00:38:14;101699.19;;;14.96;94.05
48824;BME280;34640;53.590;10.054;2022-07-10T00:41:07;101703.34;;;14.93;94.06
48824;BME280;34640;53.590;10.054;2022-07-10T00:44:01;101704.81;;;14.88;94.14
48824;BME280;34640;53.590;10.054;2022-07-10T00:46:52;101703.00;;;14.87;93.93
48824;BME280;34640;53.590;10.054;2022-07-10T00:49:44;101698.75;;;14.89;93.42
48824;BME280;34640;53.590;10.054;2022-07-10T00:52:36;101705.44;;;14.84;93.41
48824;BME280;34640;53.590;10.054;2022-07-10T00:55:30;101707.97;;;14.82;93.60
48824;BME280;34640;53.590;10.054;2022-07-10T00:58:21;101701.00;;;14.83;93.66
48824;BME280;34640;53.590;10.054;2022-07-10T01:01:14;101695.13;;;14.87;92.79
48824;BME280;34640;53.590;10.054;2022-07-10T01:04:06;101696.84;;;14.86;92.60
48824;BME280;34640;53.590;10.054;2022-07-10T01:06:58;101698.75;;;14.89;92.38
48824;BME280;34640;53.590;10.054;2022-07-10T01:09:49;101700.28;;;14.85;92.14
48824;BME280;34640;53.590;10.054;2022-07-10T01:12:41;101696.03;;;14.87;92.61
48824;BME280;34640;53.590;10.054;2022-07-10T01:15:33;101681.09;;;14.86;92.41
48824;BME280;34640;53.590;10.054;2022-07-10T01:18:27;101683.66;;;14.85;92.64
48824;BME280;34640;53.590;10.054;2022-07-10T01:21:24;101675.69;;;14.83;93.25
48824;BME280;34640;53.590;10.054;2022-07-10T01:24:16;101689.63;;;14.82;93.36
48824;BME280;34640;53.590;10.054;2022-07-10T01:27:07;101687.34;;;14.74;94.14
48824;BME280;34640;53.590;10.054;2022-07-10T01:29:59;101687.28;;;14.72;94.11
48824;BME280;34640;53.590;10.054;2022-07-10T01:32:51;101687.09;;;14.69;93.90
48824;BME280;34640;53.590;10.054;2022-07-10T01:35:43;101677.69;;;14.73;94.44
48824;BME280;34640;53.590;10.054;2022-07-10T01:38:36;101673.09;;;14.68;94.30
48824;BME280;34640;53.590;10.054;2022-07-10T01:41:28;101667.94;;;14.70;94.24
48824;BME280;34640;53.590;10.054;2022-07-10T01:44:19;101668.38;;;14.78;93.97
48824;BME280;34640;53.590;10.054;2022-07-10T01:47:10;101667.09;;;14.71;93.83
48824;BME280;34640;53.590;10.054;2022-07-10T01:50:03;101673.88;;;14.82;93.68
48824;BME280;34640;53.590;10.054;2022-07-10T01:52:54;101668.81;;;14.85;93.61
48824;BME280;34640;53.590;10.054;2022-07-10T01:55:47;101666.19;;;14.85;93.47
48824;BME280;34640;53.590;10.054;2022-07-10T01:58:39;101657.09;;;14.79;94.16
48824;BME280;34640;53.590;10.054;2022-07-10T02:01:32;101662.25;;;14.77;93.67
48824;BME280;34640;53.590;10.054;2022-07-10T02:04:23;101656.00;;;14.75;94.02
48824;BME280;34640;53.590;10.054;2022-07-10T02:07:33;101663.16;;;14.63;94.30
48824;BME280;34640;53.590;10.054;2022-07-10T02:10:24;101657.81;;;14.61;95.17
48824;BME280;34640;53.590;10.054;2022-07-10T02:13:17;101666.03;;;14.67;95.05
48824;BME280;34640;53.590;10.054;2022-07-10T02:16:10;101658.09;;;14.66;95.41
48824;BME280;34640;53.590;10.054;2022-07-10T02:19:02;101655.88;;;14.74;95.08
48824;BME280;34640;53.590;10.054;2022-07-10T02:21:54;101652.28;;;14.72;95.59
48824;BME280;34640;53.590;10.054;2022-07-10T02:24:45;101644.41;;;14.72;95.28
48824;BME280;34640;53.590;10.054;2022-07-10T02:27:36;101646.44;;;14.61;95.74
48824;BME280;34640;53.590;10.054;2022-07-10T02:30:29;101647.69;;;14.67;96.18
48824;BME280;34640;53.590;10.054;2022-07-10T02:33:20;101653.81;;;14.68;96.28
48824;BME280;34640;53.590;10.054;2022-07-10T02:36:11;101651.69;;;14.61;95.96
48824;BME280;34640;53.590;10.054;2022-07-10T02:39:03;101650.13;;;14.64;96.23
48824;BME280;34640;53.590;10.054;2022-07-10T02:41:55;101657.25;;;14.67;96.13
48824;BME280;34640;53.590;10.054;2022-07-10T02:44:46;101660.88;;;14.69;95.57
48824;BME280;34640;53.590;10.054;2022-07-10T02:47:38;101653.75;;;14.66;95.37
48824;BME280;34640;53.590;10.054;2022-07-10T02:50:30;101655.84;;;14.57;95.22
48824;BME280;34640;53.590;10.054;2022-07-10T02:53:21;101659.19;;;14.55;95.28
48824;BME280;34640;53.590;10.054;2022-07-10T02:56:13;101662.34;;;14.64;94.96
48824;BME280;34640;53.590;10.054;2022-07-10T02:59:04;101656.44;;;14.68;94.82
48824;BME280;34640;53.590;10.054;2022-07-10T03:01:56;101657.66;;;14.58;94.91
48824;BME280;34640;53.590;10.054;2022-07-10T03:04:49;101654.47;;;14.64;95.37
48824;BME280;34640;53.590;10.054;2022-07-10T03:07:41;101655.72;;;14.71;95.04
48824;BME280;34640;53.590;10.054;2022-07-10T03:10:32;101652.28;;;14.72;94.69
48824;BME280;34640;53.590;10.054;2022-07-10T03:13:24;101652.44;;;14.75;94.46
48824;BME280;34640;53.590;10.054;2022-07-10T03:16:16;101646.22;;;14.73;94.19
48824;BME280;34640;53.590;10.054;2022-07-10T03:19:07;101649.41;;;14.67;94.33
48824;BME280;34640;53.590;10.054;2022-07-10T03:22:00;101653.56;;;14.63;94.75
48824;BME280;34640;53.590;10.054;2022-07-10T03:24:52;101657.00;;;14.62;95.06
48824;BME280;34640;53.590;10.054;2022-07-10T03:27:43;101659.16;;;14.70;95.14
48824;BME280;34640;53.590;10.054;2022-07-10T03:30:34;101649.81;;;14.75;94.56
48824;BME280;34640;53.590;10.054;2022-07-10T03:33:26;101646.13;;;14.71;95.11
48824;BME280;34640;53.590;10.054;2022-07-10T03:36:17;101651.84;;;14.79;95.01
48824;BME280;34640;53.590;10.054;2022-07-10T03:39:10;101648.75;;;14.71;95.60
48824;BME280;34640;53.590;10.054;2022-07-10T03:42:01;101647.13;;;14.73;95.76
48824;BME280;34640;53.590;10.054;2022-07-10T03:44:53;101650.84;;;14.77;95.70
48824;BME280;34640;53.590;10.054;2022-07-10T03:47:44;101647.31;;;14.76;95.26
48824;BME280;34640;53.590;10.054;2022-07-10T03:50:35;101643.44;;;14.70;94.78
48824;BME280;34640;53.590;10.054;2022-07-10T03:53:27;101635.38;;;14.66;94.63
48824;BME280;34640;53.590;10.054;2022-07-10T03:56:20;101639.09;;;14.70;93.29
48824;BME280;34640;53.590;10.054;2022-07-10T03:59:29;101646.50;;;14.77;92.53
48824;BME280;34640;53.590;10.054;2022-07-10T04:02:20;101640.69;;;14.83;91.25
48824;BME280;34640;53.590;10.054;2022-07-10T04:05:12;101636.34;;;14.83;90.83
48824;BME280;34640;53.590;10.054;2022-07-10T04:08:04;101642.91;;;14.91;88.69
48824;BME280;34640;53.590;10.054;2022-07-10T04:10:56;101633.34;;;14.92;87.27
48824;BME280;34640;53.590;10.054;2022-07-10T04:13:49;101636.13;;;14.95;87.18
48824;BME280;34640;53.590;10.054;2022-07-10T04:16:41;101629.28;;;14.97;86.52
48824;BME280;34640;53.590;10.054;2022-07-10T04:19:32;101623.22;;;14.98;85.93
48824;BME280;34640;53.590;10.054;2022-07-10T04:22:24;101624.28;;;15.02;85.19
48824;BME280;34640;53.590;10.054;2022-07-10T04:25:15;101629.59;;;15.03;85.12
48824;BME280;34640;53.590;10.054;2022-07-10T04:28:07;101621.66;;;15.02;85.15
48824;BME280;34640;53.590;10.054;2022-07-10T04:31:00;101623.69;;;15.07;84.02
48824;BME280;34640;53.590;10.054;2022-07-10T04:33:52;101625.75;;;15.13;84.37
48824;BME280;34640;53.590;10.054;2022-07-10T04:36:43;101623.28;;;15.16;83.48
48824;BME280;34640;53.590;10.054;2022-07-10T04:39:34;101619.69;;;15.14;83.35
48824;BME280;34640;53.590;10.054;2022-07-10T04:42:27;101623.50;;;15.19;83.10
48824;BME280;34640;53.590;10.054;2022-07-10T04:45:19;101625.59;;;15.10;83.46
48824;BME280;34640;53.590;10.054;2022-07-10T04:47:53;101621.56;;;15.16;82.99
48824;BME280;34640;53.590;10.054;2022-07-10T04:50:26;101617.22;;;15.17;82.62
48824;BME280;34640;53.590;10.054;2022-07-10T04:52:59;101622.84;;;15.23;82.07
48824;BME280;34640;53.590;10.054;2022-07-10T04:55:33;101631.94;;;15.29;82.33
48824;BME280;34640;53.590;10.054;2022-07-10T04:58:06;101644.56;;;15.37;82.35
48824;BME280;34640;53.590;10.054;2022-07-10T05:00:39;101643.19;;;15.43;81.52
48824;BME280;34640;53.590;10.054;2022-07-10T05:03:13;101634.66;;;15.47;81.61
48824;BME280;34640;53.590;10.054;2022-07-10T05:05:47;101633.34;;;15.55;80.73
48824;BME280;34640;53.590;10.054;2022-07-10T05:08:20;101640.06;;;15.50;80.67
48824;BME280;34640;53.590;10.054;2022-07-10T05:10:53;101635.34;;;15.59;80.40
48824;BME280;34640;53.590;10.054;2022-07-10T05:13:26;101642.19;;;15.57;80.73
48824;BME280;34640;53.590;10.054;2022-07-10T05:15:59;101639.75;;;15.61;80.24
48824;BME280;34640;53.590;10.054;2022-07-10T05:18:34;101653.78;;;15.61;79.67
48824;BME280;34640;53.590;10.054;2022-07-10T05:21:07;101648.25;;;15.56;79.43
48824;BME280;34640;53.590;10.054;2022-07-10T05:23:41;101652.47;;;15.53;80.41
48824;BME280;34640;53.590;10.054;2022-07-10T05:26:14;101651.16;;;15.45;79.89
48824;BME280;34640;53.590;10.054;2022-07-10T05:28:47;101661.22;;;15.53;79.03
48824;BME280;34640;53.590;10.054;2022-07-10T05:31:20;101656.88;;;15.54;79.57
48824;BME280;34640;53.590;10.054;2022-07-10T05:33:54;101651.34;;;15.64;78.94
48824;BME280;34640;53.590;10.054;2022-07-10T05:36:27;101639.97;;;15.64;79.10
48824;BME280;34640;53.590;10.054;2022-07-10T05:39:01;101647.56;;;15.59;78.92
48824;BME280;34640;53.590;10.054;2022-07-10T05:41:34;101649.00;;;15.54;77.84
48824;BME280;34640;53.590;10.054;2022-07-10T05:44:08;101648.19;;;15.55;77.88
48824;BME280;34640;53.590;10.054;2022-07-10T05:46:41;101652.00;;;15.60;78.21
48824;BME280;34640;53.590;10.054;2022-07-10T05:49:15;101656.41;;;15.61;78.62
48824;BME280;34640;53.590;10.054;2022-07-10T05:51:48;101643.72;;;15.69;78.03
48824;BME280;34640;53.590;10.054;2022-07-10T05:54:21;101643.78;;;15.86;77.84
48824;BME280;34640;53.590;10.054;2022-07-10T05:56:54;101646.00;;;15.95;76.69
48824;BME280;34640;53.590;10.054;2022-07-10T05:59:27;101657.22;;;16.09;75.31
48824;BME280;34640;53.590;10.054;2022-07-10T06:02:00;101655.06;;;16.18;74.42
48824;BME280;34640;53.590;10.054;2022-07-10T06:04:35;101656.03;;;16.20;74.24
48824;BME280;34640;53.590;10.054;2022-07-10T06:07:08;101657.72;;;16.36;74.08
48824;BME280;34640;53.590;10.054;2022-07-10T06:09:41;101662.41;;;16.25;73.09
48824;BME280;34640;53.590;10.054;2022-07-10T06:12:14;101664.63;;;16.34;73.23
48824;BME280;34640;53.590;10.054;2022-07-10T06:14:48;101657.06;;;16.40;72.51
48824;BME280;34640;53.590;10.054;2022-07-10T06:17:21;101664.25;;;16.44;71.94
48824;BME280;34640;53.590;10.054;2022-07-10T06:19:57;101660.97;;;16.48;72.51
48824;BME280;34640;53.590;10.054;2022-07-10T06:22:30;101663.44;;;16.45;72.00
48824;BME280;34640;53.590;10.054;2022-07-10T06:25:04;101665.38;;;16.31;71.90
48824;BME280;34640;53.590;10.054;2022-07-10T06:27:38;101666.22;;;16.30;71.89
48824;BME280;34640;53.590;10.054;2022-07-10T06:30:11;101670.56;;;16.30;72.60
48824;BME280;34640;53.590;10.054;2022-07-10T06:32:44;101665.38;;;16.31;72.98
48824;BME280;34640;53.590;10.054;2022-07-10T06:35:19;101659.44;;;16.69;71.26
48824;BME280;34640;53.590;10.054;2022-07-10T06:37:52;101661.09;;;17.03;69.59
48824;BME280;34640;53.590;10.054;2022-07-10T06:40:26;101665.50;;;17.22;68.12
48824;BME280;34640;53.590;10.054;2022-07-10T06:42:59;101656.53;;;17.36;67.43
48824;BME280;34640;53.590;10.054;2022-07-10T06:45:32;101667.47;;;17.45;66.56
48824;BME280;34640;53.590;10.054;2022-07-10T06:48:05;101672.25;;;17.54;64.35
48824;BME280;34640;53.590;10.054;2022-07-10T06:50:40;101664.06;;;17.48;64.05
48824;BME280;34640;53.590;10.054;2022-07-10T06:53:13;101669.53;;;17.33;64.98
48824;BME280;34640;53.590;10.054;2022-07-10T06:55:47;101665.22;;;17.35;64.72
48824;BME280;34640;53.590;10.054;2022-07-10T06:58:20;101675.53;;;17.30;64.75
48824;BME280;34640;53.590;10.054;2022-07-10T07:00:53;101666.63;;;17.46;64.77
48824;BME280;34640;53.590;10.054;2022-07-10T07:03:26;101663.19;;;17.66;64.31
48824;BME280;34640;53.590;10.054;2022-07-10T07:06:00;101664.44;;;17.94;63.06
48824;BME280;34640;53.590;10.054;2022-07-10T07:08:34;101660.16;;;17.96;62.27
48824;BME280;34640;53.590;10.054;2022-07-10T07:11:08;101654.94;;;17.97;62.57
48824;BME280;34640;53.590;10.054;2022-07-10T07:13:41;101650.09;;;18.07;60.14
48824;BME280;34640;53.590;10.054;2022-07-10T07:16:14;101650.34;;;18.13;59.99
48824;BME280;34640;53.590;10.054;2022-07-10T07:18:50;101641.75;;;17.97;60.96
48824;BME280;34640;53.590;10.054;2022-07-10T07:21:25;101647.38;;;17.66;62.18
48824;BME280;34640;53.590;10.054;2022-07-10T07:24:15;101633.75;;;17.75;62.37
48824;BME280;34640;53.590;10.054;2022-07-10T07:26:52;101634.81;;;17.99;61.68
48824;BME280;34640;53.590;10.054;2022-07-10T07:29:25;101633.91;;;17.99;60.52
48824;BME280;34640;53.590;10.054;2022-07-10T07:31:58;101646.63;;;18.08;61.22
48824;BME280;34640;53.590;10.054;2022-07-10T07:34:31;101647.72;;;18.13;60.48
48824;BME280;34640;53.590;10.054;2022-07-10T07:37:06;101641.78;;;18.18;60.08
48824;BME280;34640;53.590;10.054;2022-07-10T07:39:39;101652.03;;;18.11;59.87
48824;BME280;34640;53.590;10.054;2022-07-10T07:42:12;101643.03;;;18.26;60.38
48824;BME280;34640;53.590;10.054;2022-07-10T07:44:45;101657.00;;;18.45;59.96
48824;BME280;34640;53.590;10.054;2022-07-10T07:47:18;101645.66;;;18.67;59.84
48824;BME280;34640;53.590;10.054;2022-07-10T07:49:51;101647.50;;;18.69;58.35
48824;BME280;34640;53.590;10.054;2022-07-10T07:52:25;101653.88;;;18.74;57.07
48824;BME280;34640;53.590;10.054;2022-07-10T07:54:58;101645.50;;;18.63;56.93
48824;BME280;34640;53.590;10.054;2022-07-10T07:57:31;101646.81;;;18.54;57.81
48824;BME280;34640;53.590;10.054;2022-07-10T08:00:05;101655.00;;;18.60;57.75
48824;BME280;34640;53.590;10.054;2022-07-10T08:02:40;101647.22;;;18.63;56.42
48824;BME280;34640;53.590;10.054;2022-07-10T08:05:13;101635.75;;;18.83;56.23
48824;BME280;34640;53.590;10.054;2022-07-10T08:07:50;101651.44;;;19.01;53.34
48824;BME280;34640;53.590;10.054;2022-07-10T08:10:26;101652.09;;;19.18;51.51
48824;BME280;34640;53.590;10.054;2022-07-10T08:12:59;101656.66;;;19.22;51.69
48824;BME280;34640;53.590;10.054;2022-07-10T08:15:32;101640.94;;;19.71;51.35
48824;BME280;34640;53.590;10.054;2022-07-10T08:18:06;101643.78;;;20.51;50.02
48824;BME280;34640;53.590;10.054;2022-07-10T08:20:40;101649.81;;;22.88;44.61
48824;BME280;34640;53.590;10.054;2022-07-10T08:23:14;101648.84;;;24.53;40.84
48824;BME280;34640;53.590;10.054;2022-07-10T08:25:47;101642.69;;;25.78;37.78
48824;BME280;34640;53.590;10.054;2022-07-10T08:28:21;101662.75;;;25.50;38.26
48824;BME280;34640;53.590;10.054;2022-07-10T08:31:17;101644.50;;;25.16;37.91
48824;BME280;34640;53.590;10.054;2022-07-10T08:33:51;101658.38;;;25.55;38.23
48824;BME280;34640;53.590;10.054;2022-07-10T08:36:24;101652.69;;;25.28;38.76
48824;BME280;34640;53.590;10.054;2022-07-10T08:39:20;101650.03;;;26.01;37.44
48824;BME280;34640;53.590;10.054;2022-07-10T08:41:53;101640.53;;;25.50;38.07
48824;BME280;34640;53.590;10.054;2022-07-10T08:44:27;101643.28;;;23.52;41.57
48824;BME280;34640;53.590;10.054;2022-07-10T08:47:02;101647.66;;;24.90;37.75
48824;BME280;34640;53.590;10.054;2022-07-10T08:49:35;101654.25;;;26.67;34.25
48824;BME280;34640;53.590;10.054;2022-07-10T08:52:13;101661.31;;;28.05;32.25
48824;BME280;34640;53.590;10.054;2022-07-10T08:54:51;101662.22;;;28.10;31.73
48824;BME280;34640;53.590;10.054;2022-07-10T08:57:25;101653.38;;;28.69;29.84
48824;BME280;34640;53.590;10.054;2022-07-10T08:59:59;101656.97;;;28.87;29.21
48824;BME280;34640;53.590;10.054;2022-07-10T09:02:32;101660.13;;;27.37;31.78
48824;BME280;34640;53.590;10.054;2022-07-10T09:05:06;101647.34;;;25.26;36.12
48824;BME280;34640;53.590;10.054;2022-07-10T09:07:40;101643.44;;;26.47;33.17
48824;BME280;34640;53.590;10.054;2022-07-10T09:10:19;101642.03;;;26.98;31.90
48824;BME280;34640;53.590;10.054;2022-07-10T09:12:54;101669.22;;;27.71;31.22
48824;BME280;34640;53.590;10.054;2022-07-10T09:15:28;101659.91;;;27.03;31.81
48824;BME280;34640;53.590;10.054;2022-07-10T09:18:04;101649.16;;;26.00;32.80
48824;BME280;34640;53.590;10.054;2022-07-10T09:20:40;101632.81;;;24.03;36.78
48824;BME280;34640;53.590;10.054;2022-07-10T09:23:16;101645.91;;;23.10;38.79
48824;BME280;34640;53.590;10.054;2022-07-10T09:25:53;101628.63;;;22.55;40.25
48824;BME280;34640;53.590;10.054;2022-07-10T09:28:26;101641.72;;;21.83;43.12
48824;BME280;34640;53.590;10.054;2022-07-10T09:30:59;101629.88;;;21.40;44.61
48824;BME280;34640;53.590;10.054;2022-07-10T09:33:33;101619.78;;;21.00;46.68
48824;BME280;34640;53.590;10.054;2022-07-10T09:36:08;101625.28;;;21.06;46.13
48824;BME280;34640;53.590;10.054;2022-07-10T09:38:52;101642.50;;;20.92;45.45
48824;BME280;34640;53.590;10.054;2022-07-10T09:41:29;101630.16;;;20.92;44.38
48824;BME280;34640;53.590;10.054;2022-07-10T09:44:04;101636.75;;;20.51;45.63
48824;BME280;34640;53.590;10.054;2022-07-10T09:46:39;101641.78;;;20.70;45.33
48824;BME280;34640;53.590;10.054;2022-07-10T09:49:14;101635.75;;;20.74;45.67
48824;BME280;34640;53.590;10.054;2022-07-10T09:51:47;101633.38;;;20.82;45.61
48824;BME280;34640;53.590;10.054;2022-07-10T09:54:21;101659.28;;;20.65;45.78
48824;BME280;34640;53.590;10.054;2022-07-10T09:56:56;101650.13;;;20.56;44.99
48824;BME280;34640;53.590;10.054;2022-07-10T09:59:31;101638.78;;;20.60;45.79
48824;BME280;34640;53.590;10.054;2022-07-10T10:02:05;101655.09;;;20.72;45.06
48824;BME280;34640;53.590;10.054;2022-07-10T10:04:41;101642.13;;;20.54;45.39
48824;BME280;34640;53.590;10.054;2022-07-10T10:07:18;101641.94;;;20.48;45.15
48824;BME280;34640;53.590;10.054;2022-07-10T10:09:52;101641.34;;;20.57;45.37
48824;BME280;34640;53.590;10.054;2022-07-10T10:12:32;101632.47;;;20.31;46.77
48824;BME280;34640;53.590;10.054;2022-07-10T10:15:10;101644.69;;;20.51;45.01
48824;BME280;34640;53.590;10.054;2022-07-10T10:17:45;101638.75;;;20.85;44.85
48824;BME280;34640;53.590;10.054;2022-07-10T10:20:20;101640.38;;;21.09;44.98
48824;BME280;34640;53.590;10.054;2022-07-10T10:23:15;101641.50;;;21.17;43.73
48824;BME280;34640;53.590;10.054;2022-07-10T10:25:53;101634.22;;;21.10;42.68
48824;BME280;34640;53.590;10.054;2022-07-10T10:28:28;101635.06;;;21.09;43.00
48824;BME280;34640;53.590;10.054;2022-07-10T10:31:01;101634.78;;;20.99;42.73
48824;BME280;34640;53.590;10.054;2022-07-10T10:33:42;101641.50;;;20.88;42.04
48824;BME280;34640;53.590;10.054;2022-07-10T10:36:46;101633.19;;;21.04;41.75
48824;BME280;34640;53.590;10.054;2022-07-10T10:39:20;101634.78;;;20.99;41.98
48824;BME280;34640;53.590;10.054;2022-07-10T10:41:54;101627.94;;;20.79;43.50
48824;BME280;34640;53.590;10.054;2022-07-10T10:44:29;101639.19;;;20.72;43.15
48824;BME280;34640;53.590;10.054;2022-07-10T10:47:05;101646.66;;;20.58;43.17
48824;BME280;34640;53.590;10.054;2022-07-10T10:49:53;101640.00;;;20.69;43.33
48824;BME280;34640;53.590;10.054;2022-07-10T10:52:28;101642.44;;;20.90;43.64
48824;BME280;34640;53.590;10.054;2022-07-10T10:55:05;101637.28;;;20.95;42.66
48824;BME280;34640;53.590;10.054;2022-07-10T10:57:44;101631.44;;;21.05;42.90
48824;BME280;34640;53.590;10.054;2022-07-10T11:00:34;101633.72;;;21.23;42.13
48824;BME280;34640;53.590;10.054;2022-07-10T11:03:20;101641.91;;;21.29;42.19
48824;BME280;34640;53.590;10.054;2022-07-10T11:05:53;101637.19;;;21.20;42.68
48824;BME280;34640;53.590;10.054;2022-07-10T11:08:37;101641.28;;;21.09;42.79
48824;BME280;34640;53.590;10.054;2022-07-10T11:11:36;101645.94;;;20.62;43.77
48824;BME280;34640;53.590;10.054;2022-07-10T11:14:12;101638.91;;;20.63;43.92
48824;BME280;34640;53.590;10.054;2022-07-10T11:16:55;101646.63;;;20.57;43.51
48824;BME280;34640;53.590;10.054;2022-07-10T11:19:30;101630.72;;;20.82;42.15
48824;BME280;34640;53.590;10.054;2022-07-10T11:22:19;101637.41;;;20.99;42.50
48824;BME280;34640;53.590;10.054;2022-07-10T11:25:03;101635.16;;;20.83;43.18
48824;BME280;34640;53.590;10.054;2022-07-10T11:28:04;101642.31;;;20.86;43.22
48824;BME280;34640;53.590;10.054;2022-07-10T11:30:47;101641.78;;;20.70;43.81
48824;BME280;34640;53.590;10.054;2022-07-10T11:33:23;101639.81;;;20.63;43.94
48824;BME280;34640;53.590;10.054;2022-07-10T11:35:56;101642.31;;;20.60;44.58
48824;BME280;34640;53.590;10.054;2022-07-10T11:38:29;101627.06;;;20.52;45.15
48824;BME280;34640;53.590;10.054;2022-07-10T11:41:03;101645.09;;;20.63;44.96
48824;BME280;34640;53.590;10.054;2022-07-10T11:43:36;101641.28;;;20.55;45.18
48824;BME280;34640;53.590;10.054;2022-07-10T11:46:18;101641.31;;;20.31;44.56
48824;BME280;34640;53.590;10.054;2022-07-10T11:48:54;101652.28;;;20.40;44.86
48824;BME280;34640;53.590;10.054;2022-07-10T11:51:29;101646.13;;;20.41;44.55
48824;BME280;34640;53.590;10.054;2022-07-10T11:54:04;101646.19;;;20.43;44.81
48824;BME280;34640;53.590;10.054;2022-07-10T11:56:38;101636.59;;;20.47;44.36
48824;BME280;34640;53.590;10.054;2022-07-10T11:59:14;101643.28;;;20.37;44.22
48824;BME280;34640;53.590;10.054;2022-07-10T12:01:48;101646.22;;;20.19;45.18
48824;BME280;34640;53.590;10.054;2022-07-10T12:04:24;101645.50;;;20.25;45.34
48824;BME280;34640;53.590;10.054;2022-07-10T12:06:58;101651.81;;;20.28;44.59
48824;BME280;34640;53.590;10.054;2022-07-10T12:09:31;101648.25;;;20.28;43.91
48824;BME280;34640;53.590;10.054;2022-07-10T12:12:08;101646.66;;;20.33;44.17
48824;BME280;34640;53.590;10.054;2022-07-10T12:14:41;101646.25;;;20.21;44.83
48824;BME280;34640;53.590;10.054;2022-07-10T12:17:14;101645.38;;;20.20;44.89
48824;BME280;34640;53.590;10.054;2022-07-10T12:19:49;101651.16;;;20.35;44.01
48824;BME280;34640;53.590;10.054;2022-07-10T12:22:27;101653.59;;;20.29;43.78
48824;BME280;34640;53.590;10.054;2022-07-10T12:25:00;101647.19;;;19.97;44.12
48824;BME280;34640;53.590;10.054;2022-07-10T12:27:40;101649.53;;;19.90;45.19
48824;BME280;34640;53.590;10.054;2022-07-10T12:30:13;101646.06;;;19.91;44.94
48824;BME280;34640;53.590;10.054;2022-07-10T12:32:46;101655.97;;;19.96;45.51
48824;BME280;34640;53.590;10.054;2022-07-10T12:35:21;101660.53;;;20.00;45.45
48824;BME280;34640;53.590;10.054;2022-07-10T12:37:54;101660.88;;;19.86;46.23
48824;BME280;34640;53.590;10.054;2022-07-10T12:40:30;101660.41;;;19.73;47.25
48824;BME280;34640;53.590;10.054;2022-07-10T12:43:03;101660.41;;;19.73;47.40
48824;BME280;34640;53.590;10.054;2022-07-10T12:45:37;101656.94;;;19.74;47.51
48824;BME280;34640;53.590;10.054;2022-07-10T12:48:21;101668.00;;;19.64;47.95
48824;BME280;34640;53.590;10.054;2022-07-10T12:50:55;101672.06;;;19.55;48.80
48824;BME280;34640;53.590;10.054;2022-07-10T12:53:28;101659.78;;;19.57;48.51
48824;BME280;34640;53.590;10.054;2022-07-10T12:56:02;101656.94;;;19.52;47.84
48824;BME280;34640;53.590;10.054;2022-07-10T12:58:35;101661.41;;;19.53;48.42
48824;BME280;34640;53.590;10.054;2022-07-10T13:01:08;101666.03;;;19.59;48.95
48824;BME280;34640;53.590;10.054;2022-07-10T13:03:41;101685.44;;;19.59;48.96
48824;BME280;34640;53.590;10.054;2022-07-10T13:06:27;101675.94;;;19.64;48.76
48824;BME280;34640;53.590;10.054;2022-07-10T13:09:01;101676.78;;;19.87;48.37
48824;BME280;34640;53.590;10.054;2022-07-10T13:11:34;101675.44;;;19.98;47.84
48824;BME280;34640;53.590;10.054;2022-07-10T13:14:08;101675.31;;;19.95;48.17
48824;BME280;34640;53.590;10.054;2022-07-10T13:16:41;101694.56;;;19.91;48.29
48824;BME280;34640;53.590;10.054;2022-07-10T13:19:14;101686.56;;;19.90;48.23
48824;BME280;34640;53.590;10.054;2022-07-10T13:21:48;101688.66;;;19.98;47.87
48824;BME280;34640;53.590;10.054;2022-07-10T13:24:21;101694.22;;;20.06;48.13
48824;BME280;34640;53.590;10.054;2022-07-10T13:26:55;101694.28;;;20.07;47.94
48824;BME280;34640;53.590;10.054;2022-07-10T13:29:30;101686.81;;;19.96;47.47
48824;BME280;34640;53.590;10.054;2022-07-10T13:32:03;101691.09;;;19.94;48.07
48824;BME280;34640;53.590;10.054;2022-07-10T13:34:37;101691.69;;;19.85;48.62
48824;BME280;34640;53.590;10.054;2022-07-10T13:37:11;101687.03;;;19.78;48.43
48824;BME280;34640;53.590;10.054;2022-07-10T13:39:45;101689.41;;;19.72;48.10
48824;BME280;34640;53.590;10.054;2022-07-10T13:42:18;101695.91;;;19.80;48.63
48824;BME280;34640;53.590;10.054;2022-07-10T13:44:53;101696.06;;;19.84;48.25
48824;BME280;34640;53.590;10.054;2022-07-10T13:47:29;101692.81;;;19.92;48.71
48824;BME280;34640;53.590;10.054;2022-07-10T13:50:02;101685.13;;;19.74;48.02